Time;durP1;ratioP1;P1;durP2;ratioP2;P2;SDS_P1;SDS_P2;PMS_P1;PMS_P2;Temp;Humidity;BMP_temperature;BMP_pressure;BME280_temperature;BME280_humidity;BME280_pressure;Samples;Min_cycle;Max_cycle;Signal;HPM_P1;HPM_P2
2023/05/23 00:00:23;;;;;;;23.38;16.73;;;;;;;11.75;100.00;92927.97;2105375;28;20024;-81
2023/05/23 00:01:36;;;;;;;20.70;17.15;;;;;;;11.68;100.00;92928.22;2090640;28;20025;-79
2023/05/23 00:02:49;;;;;;;21.88;16.67;;;;;;;11.82;100.00;92929.72;2104568;27;20028;-81
2023/05/23 00:03:56;;;;;;;26.75;17.75;;;;;;;11.77;100.00;92928.31;2105884;28;20513;-79
2023/05/23 00:05:07;;;;;;;24.25;16.73;;;;;;;11.75;100.00;92921.88;2097733;28;20530;-81
2023/05/23 00:06:25;;;;;;;22.45;16.85;;;;;;;11.67;100.00;92925.94;2093374;28;20037;-80
2023/05/23 00:07:43;;;;;;;21.83;17.33;;;;;;;11.65;100.00;92931.72;2104519;28;20100;-80
2023/05/23 00:08:52;;;;;;;22.20;17.05;;;;;;;11.63;100.00;92936.00;2112491;28;20455;-80
2023/05/23 00:10:00;;;;;;;24.35;17.60;;;;;;;11.58;100.00;92935.34;2098846;28;20033;-82
2023/05/23 00:11:15;;;;;;;22.92;18.67;;;;;;;11.55;100.00;92936.22;2097355;28;20099;-77
2023/05/23 00:12:24;;;;;;;24.48;17.75;;;;;;;11.49;100.00;92931.81;2101406;28;20060;-79
2023/05/23 00:13:38;;;;;;;25.63;18.20;;;;;;;11.50;100.00;92939.44;2107691;28;20031;-80
2023/05/23 00:14:48;;;;;;;25.98;17.75;;;;;;;11.52;100.00;92942.41;2097141;28;20025;-81
2023/05/23 00:16:04;;;;;;;24.33;18.52;;;;;;;11.53;100.00;92935.88;2089550;28;20059;-79
2023/05/23 00:17:12;;;;;;;26.50;18.55;;;;;;;11.55;100.00;92938.91;2102017;28;20024;-78
2023/05/23 00:18:23;;;;;;;25.40;17.70;;;;;;;11.45;100.00;92937.25;2114289;28;20035;-79
2023/05/23 00:19:35;;;;;;;23.50;18.05;;;;;;;11.42;100.00;92937.38;2114435;28;20023;-82
2023/05/23 00:20:47;;;;;;;24.55;17.80;;;;;;;11.45;100.00;92929.22;2113944;28;20074;-81
2023/05/23 00:22:02;;;;;;;23.70;17.75;;;;;;;11.43;100.00;92939.63;2105707;28;20131;-81
2023/05/23 00:23:17;;;;;;;22.10;17.42;;;;;;;11.39;100.00;92933.59;2107192;28;20038;-81
2023/05/23 00:24:28;;;;;;;23.52;18.27;;;;;;;11.42;100.00;92932.75;2108464;28;20373;-82
2023/05/23 00:25:47;;;;;;;28.80;18.08;;;;;;;11.34;100.00;92936.81;2112268;28;20024;-81
2023/05/23 00:27:01;;;;;;;25.50;17.88;;;;;;;11.36;100.00;92939.78;2108691;28;20065;-80
2023/05/23 00:28:11;;;;;;;23.92;18.80;;;;;;;11.35;100.00;92938.31;2106509;28;20030;-80
2023/05/23 00:29:23;;;;;;;24.83;19.23;;;;;;;11.28;100.00;92936.59;2095559;28;20032;-80
2023/05/23 00:30:35;;;;;;;26.10;18.55;;;;;;;11.24;100.00;92940.53;2092785;28;20033;-79
2023/05/23 00:31:45;;;;;;;25.45;18.60;;;;;;;11.30;100.00;92938.84;2098915;28;20008;-80
2023/05/23 00:32:57;;;;;;;26.15;18.02;;;;;;;11.27;100.00;92934.31;2105605;28;20051;-80
2023/05/23 00:34:06;;;;;;;25.90;17.83;;;;;;;11.24;100.00;92929.84;2097377;28;20115;-78
2023/05/23 00:35:15;;;;;;;24.45;17.63;;;;;;;11.22;100.00;92926.81;2099051;28;20083;-79
2023/05/23 00:36:26;;;;;;;28.75;18.58;;;;;;;11.27;100.00;92926.28;2097519;28;20127;-78
2023/05/23 00:37:35;;;;;;;24.65;18.15;;;;;;;11.26;100.00;92928.22;2103367;28;20024;-81
2023/05/23 00:38:48;;;;;;;23.00;18.13;;;;;;;11.18;100.00;92928.84;2101773;28;20509;-81
2023/05/23 00:39:56;;;;;;;25.63;19.15;;;;;;;11.12;100.00;92931.28;2105827;28;20027;-80
2023/05/23 00:41:06;;;;;;;27.40;19.15;;;;;;;11.10;100.00;92933.63;2112859;28;20034;-80
2023/05/23 00:42:18;;;;;;;26.92;18.83;;;;;;;11.10;100.00;92931.69;2111036;28;20019;-78
2023/05/23 00:43:30;;;;;;;26.50;18.45;;;;;;;11.07;100.00;92937.91;2096374;28;20585;-79
2023/05/23 00:44:38;;;;;;;26.13;18.23;;;;;;;11.02;100.00;92941.09;2104770;28;20115;-81
2023/05/23 00:45:51;;;;;;;25.27;17.75;;;;;;;11.06;100.00;92933.75;2102227;28;20055;-79
2023/05/23 00:46:59;;;;;;;25.60;18.73;;;;;;;11.08;100.00;92935.97;2106386;28;20455;-79
2023/05/23 00:48:10;;;;;;;32.22;19.15;;;;;;;11.03;100.00;92937.25;2113097;28;20054;-81
2023/05/23 00:49:25;;;;;;;28.25;19.45;;;;;;;10.97;100.00;92938.16;2106769;28;20016;-81
2023/05/23 00:50:37;;;;;;;28.15;18.38;;;;;;;11.03;100.00;92934.56;2108278;28;20028;-79
2023/05/23 00:51:49;;;;;;;25.42;18.75;;;;;;;11.06;100.00;92930.28;2102102;28;20106;-78
2023/05/23 00:52:58;;;;;;;25.90;19.48;;;;;;;11.08;100.00;92935.97;2106155;28;20559;-78
2023/05/23 00:54:12;;;;;;;23.83;18.00;;;;;;;11.07;100.00;92929.13;2114192;28;20493;-80
2023/05/23 00:55:20;;;;;;;;;;;;;;;11.10;100.00;92930.94;2112068;28;20515;-82
2023/05/23 00:56:28;;;;;;;23.25;18.38;;;;;;;11.08;100.00;92935.97;2113270;28;19911;-78
2023/05/23 00:57:39;;;;;;;24.58;17.45;;;;;;;11.02;100.00;92938.44;2113989;28;20387;-79
2023/05/23 00:58:47;;;;;;;29.98;18.15;;;;;;;10.95;100.00;92938.59;2105404;28;20020;-78
2023/05/23 00:59:56;;;;;;;25.80;18.50;;;;;;;10.91;100.00;92940.63;2089256;28;20025;-79
2023/05/23 01:01:07;;;;;;;24.33;18.00;;;;;;;10.92;100.00;92944.03;2104640;28;20016;-80
2023/05/23 01:02:20;;;;;;;25.83;18.77;;;;;;;10.86;100.00;92946.47;2102237;28;20024;-80
2023/05/23 01:03:30;;;;;;;24.40;17.95;;;;;;;10.88;100.00;92941.44;2105698;28;20043;-82
2023/05/23 01:04:40;;;;;;;;;;;;;;;10.82;100.00;92945.81;2110109;28;20030;-79
2023/05/23 01:06:08;;;;;;;29.17;18.35;;;;;;;10.83;100.00;92944.63;2112040;28;19916;-78
2023/05/23 01:07:17;;;;;;;23.58;17.48;;;;;;;10.79;100.00;92950.06;2097680;28;20044;-79
2023/05/23 01:08:29;;;;;;;24.48;17.83;;;;;;;10.76;100.00;92945.59;2089546;28;20078;-82
2023/05/23 01:09:40;;;;;;;26.38;19.00;;;;;;;10.77;100.00;92952.44;2083548;28;20029;-81
2023/05/23 01:10:51;;;;;;;27.27;18.73;;;;;;;10.75;100.00;92949.41;2091294;28;20104;-82
2023/05/23 01:12:32;;;;;;;26.83;18.33;;;;;;;10.76;100.00;92955.53;2106955;28;20115;-79
2023/05/23 01:14:20;;;;;;;27.25;17.42;;;;;;;10.72;100.00;92950.28;2111524;28;20066;-82
2023/05/23 01:15:38;;;;;;;24.65;17.70;;;;;;;10.71;100.00;92954.13;2093514;28;20037;-80
2023/05/23 01:17:07;;;;;;;27.45;18.13;;;;;;;10.71;100.00;92956.03;2100206;28;20060;-80
2023/05/23 01:18:47;;;;;;;28.90;19.13;;;;;;;10.70;100.00;92954.53;2110382;28;20023;-79
2023/05/23 01:20:18;;;;;;;32.22;19.40;;;;;;;10.70;100.00;92957.19;2101913;28;20092;-81
2023/05/23 01:21:28;;;;;;;27.83;18.27;;;;;;;10.73;100.00;92946.41;2118873;27;20088;-79
2023/05/23 01:23:02;;;;;;;31.23;20.85;;;;;;;10.68;100.00;92954.19;2103872;28;20886;-79
2023/05/23 01:24:44;;;;;;;30.45;19.73;;;;;;;10.71;100.00;92950.66;2104914;28;20081;-76
2023/05/23 01:26:18;;;;;;;27.08;17.23;;;;;;;10.62;100.00;92948.59;2085878;28;20141;-79
2023/05/23 01:27:40;;;;;;;28.02;18.38;;;;;;;10.61;100.00;92949.03;2097016;28;20522;-77
2023/05/23 01:29:09;;;;;;;27.52;19.05;;;;;;;10.58;100.00;92951.38;2092912;28;20095;-78
2023/05/23 01:30:20;;;;;;;25.40;18.70;;;;;;;10.56;100.00;92943.00;2106809;28;20392;-77
2023/05/23 01:31:32;;;;;;;26.75;19.40;;;;;;;10.52;100.00;92950.38;2119543;28;20015;-78
2023/05/23 01:32:44;;;;;;;26.70;19.08;;;;;;;10.59;100.00;92946.78;2117419;28;20474;-81
2023/05/23 01:33:55;;;;;;;29.63;19.10;;;;;;;10.54;100.00;92948.03;2109049;28;20024;-82
2023/05/23 01:35:06;;;;;;;28.30;19.30;;;;;;;10.48;100.00;92946.28;2091430;28;20027;-80
2023/05/23 01:36:18;;;;;;;28.23;20.10;;;;;;;10.49;100.00;92955.78;2096376;28;20104;-80
2023/05/23 01:37:28;;;;;;;26.48;18.95;;;;;;;10.42;100.00;92947.97;2105496;28;20020;-78
2023/05/23 01:38:38;;;;;;;30.15;19.70;;;;;;;10.46;100.00;92948.63;2104985;28;20024;-80
2023/05/23 01:39:45;;;;;;;;;;;;;;;10.47;100.00;92952.78;2106867;28;20024;-80
2023/05/23 01:40:55;;;;;;;30.67;20.65;;;;;;;10.43;100.00;92950.19;2113942;28;19922;-77
2023/05/23 01:42:02;;;;;;;;;;;;;;;10.48;100.00;92946.28;2112981;28;20036;-80
2023/05/23 01:43:05;;;;;;;26.75;17.90;;;;;;;10.37;100.00;92943.88;2100220;28;19919;-78
2023/05/23 01:44:14;;;;;;;25.90;18.83;;;;;;;10.37;100.00;92937.78;2104528;28;20073;-76
2023/05/23 01:45:27;;;;;;;33.60;20.40;;;;;;;10.49;100.00;92943.19;2104886;28;20019;-76
2023/05/23 01:46:38;;;;;;;33.30;21.38;;;;;;;10.42;100.00;92939.94;2112862;28;20047;-77
2023/05/23 01:47:48;;;;;;;30.90;20.30;;;;;;;10.46;100.00;92937.94;2109455;28;20440;-80
2023/05/23 01:48:59;;;;;;;27.50;18.42;;;;;;;10.56;100.00;92942.25;2112871;28;20015;-79
2023/05/23 01:50:10;;;;;;;30.70;20.70;;;;;;;10.47;100.00;92934.09;2105169;28;20034;-80
2023/05/23 01:51:19;;;;;;;34.47;21.15;;;;;;;10.51;100.00;92945.44;2109520;28;20107;-78
2023/05/23 01:52:28;;;;;;;30.70;20.52;;;;;;;10.52;100.00;92937.00;2105874;28;20541;-80
2023/05/23 01:53:39;;;;;;;37.05;21.50;;;;;;;10.52;100.00;92939.66;2105105;28;20036;-78
2023/05/23 01:54:49;;;;;;;32.42;21.70;;;;;;;10.44;100.00;92940.25;2101433;28;20034;-77
2023/05/23 01:56:02;;;;;;;31.23;20.75;;;;;;;10.43;100.00;92939.50;2104118;28;20052;-81
2023/05/23 01:57:08;;;;;;;31.30;21.23;;;;;;;10.45;100.00;92942.53;2103609;28;20048;-84
2023/05/23 01:58:24;;;;;;;34.47;21.80;;;;;;;10.42;100.00;92940.69;2094743;28;20369;-78
2023/05/23 01:59:25;;;;;;;30.02;20.88;;;;;;;10.36;100.00;92939.69;2109465;28;20024;-80
2023/05/23 02:00:26;;;;;;;30.48;21.27;;;;;;;10.37;100.00;92935.09;2104720;28;20028;-80
2023/05/23 02:01:34;;;;;;;30.88;20.42;;;;;;;10.33;100.00;92943.19;2108958;28;20392;-76
2023/05/23 02:02:40;;;;;;;34.08;21.02;;;;;;;10.34;100.00;92942.03;2096414;28;20115;-77
2023/05/23 02:03:50;;;;;;;35.03;20.83;;;;;;;10.32;100.00;92939.03;2095413;28;20040;-82
2023/05/23 02:04:59;;;;;;;30.90;19.90;;;;;;;10.34;100.00;92934.00;2086933;28;20488;-80
2023/05/23 02:06:06;;;;;;;29.33;19.80;;;;;;;10.34;100.00;92937.44;2105195;28;20043;-80
2023/05/23 02:07:17;;;;;;;31.00;19.92;;;;;;;10.32;100.00;92941.72;2100790;28;20065;-80
2023/05/23 02:08:28;;;;;;;34.65;21.45;;;;;;;10.36;100.00;92941.59;2107286;28;20040;-79
2023/05/23 02:09:36;;;;;;;36.75;21.65;;;;;;;10.35;100.00;92940.84;2103887;28;20047;-80
2023/05/23 02:10:42;;;;;;;34.72;20.52;;;;;;;10.31;100.00;92940.94;2088087;28;20106;-81
2023/05/23 02:11:54;;;;;;;31.88;21.23;;;;;;;10.42;100.00;92948.69;2088780;28;20021;-80
2023/05/23 02:13:01;;;;;;;34.85;20.88;;;;;;;10.48;100.00;92939.00;2097127;28;20016;-76
2023/05/23 02:14:10;;;;;;;37.13;22.42;;;;;;;10.55;100.00;92943.44;2103770;28;20031;-77
2023/05/23 02:15:22;;;;;;;34.40;20.02;;;;;;;10.47;100.00;92948.19;2109061;28;20498;-82
2023/05/23 02:16:35;;;;;;;40.10;21.80;;;;;;;10.51;100.00;92950.78;2112307;28;20088;-81
2023/05/23 02:17:43;;;;;;;38.35;21.15;;;;;;;10.55;100.00;92940.75;2103309;28;20039;-78
2023/05/23 02:18:55;;;;;;;33.00;20.83;;;;;;;10.57;100.00;92944.50;2105274;28;20086;-81
2023/05/23 02:31:39;;;;;;;;;;;;;;;10.66;100.00;92948.50;2614449;22;20494;-78
2023/05/23 02:32:50;;;;;;;31.33;20.95;;;;;;;10.62;100.00;92950.53;2622236;22;20327;-79
2023/05/23 02:34:00;;;;;;;32.25;20.95;;;;;;;10.59;100.00;92942.19;2594751;22;20021;-77
2023/05/23 02:35:10;;;;;;;33.45;21.45;;;;;;;10.62;100.00;92947.84;2586718;22;20453;-78
2023/05/23 02:36:19;;;;;;;29.38;20.25;;;;;;;10.58;100.00;92945.28;2587848;22;20439;-79
2023/05/23 02:37:27;;;;;;;29.60;20.55;;;;;;;10.49;100.00;92945.09;2598654;22;20526;-79
2023/05/23 02:38:36;;;;;;;30.83;20.75;;;;;;;10.52;100.00;92950.38;2597435;22;20007;-80
2023/05/23 02:39:37;;;;;;;31.50;21.23;;;;;;;10.45;100.00;92950.56;2592985;22;20586;-78
2023/05/23 02:40:49;;;;;;;36.70;21.10;;;;;;;10.45;100.00;92945.22;2596279;22;20085;-78
2023/05/23 02:41:56;;;;;;;30.45;20.58;;;;;;;10.40;100.00;92947.59;2599588;22;20388;-78
2023/05/23 02:43:04;;;;;;;33.08;20.13;;;;;;;10.41;100.00;92949.13;2597646;22;20007;-77
2023/05/23 02:44:23;;;;;;;34.17;21.63;;;;;;;10.49;100.00;92945.88;2587678;22;20384;-80
2023/05/23 02:45:31;;;;;;;31.92;21.60;;;;;;;10.44;100.00;92951.69;2609503;22;20007;-80
2023/05/23 02:46:40;;;;;;;29.35;20.63;;;;;;;10.40;100.00;92950.28;2609750;22;20078;-78
2023/05/23 02:47:50;;;;;;;33.70;21.63;;;;;;;10.39;100.00;92949.53;2596730;22;20003;-77
2023/05/23 02:49:00;;;;;;;32.47;20.38;;;;;;;10.37;100.00;92951.13;2575269;22;20015;-80
2023/05/23 02:50:12;;;;;;;33.23;21.60;;;;;;;10.32;100.00;92955.81;2588065;22;20436;-77
2023/05/23 02:51:19;;;;;;;31.52;20.73;;;;;;;10.36;100.00;92953.06;2599431;22;20385;-78
2023/05/23 02:52:29;;;;;;;33.55;22.45;;;;;;;10.32;100.00;92953.13;2598113;22;20441;-80
2023/05/23 02:53:38;;;;;;;33.17;21.00;;;;;;;10.27;100.00;92955.53;2585799;22;20008;-81
2023/05/23 02:54:48;;;;;;;35.83;21.48;;;;;;;10.28;100.00;92954.38;2587669;22;20019;-77
2023/05/23 02:55:59;;;;;;;33.72;22.02;;;;;;;10.19;100.00;92959.53;2609308;22;20003;-79
2023/05/23 02:57:06;;;;;;;31.55;21.15;;;;;;;10.12;100.00;92965.03;2610572;22;20010;-79
2023/05/23 02:58:17;;;;;;;30.77;21.77;;;;;;;10.16;100.00;92960.34;2597326;22;20841;-77
2023/05/23 02:59:31;;;;;;;31.90;22.00;;;;;;;10.17;100.00;92956.50;2592547;22;20034;-77
2023/05/23 03:00:43;;;;;;;33.88;22.27;;;;;;;10.12;100.00;92957.75;2600480;22;20384;-78
2023/05/23 03:01:55;;;;;;;37.33;22.23;;;;;;;10.11;100.00;92948.25;2609961;22;20012;-80
2023/05/23 03:03:06;;;;;;;32.00;21.88;;;;;;;10.12;100.00;92957.00;2599025;22;20165;-78
2023/05/23 03:04:15;;;;;;;37.10;22.30;;;;;;;10.09;100.00;92951.31;2577543;22;20005;-78
2023/05/23 03:05:24;;;;;;;37.92;22.27;;;;;;;10.04;100.00;92940.41;2598701;22;20104;-80
2023/05/23 03:06:43;;;;;;;34.58;22.13;;;;;;;10.05;100.00;92950.69;2596462;22;20059;-77
2023/05/23 03:07:53;;;;;;;33.85;22.00;;;;;;;10.03;100.00;92942.31;2575673;22;20330;-77
2023/05/23 03:09:06;;;;;;;41.30;23.27;;;;;;;10.03;100.00;92953.00;2589848;22;20007;-76
2023/05/23 03:10:16;;;;;;;37.15;22.33;;;;;;;10.06;100.00;92949.50;2599160;22;20010;-77
2023/05/23 03:11:28;;;;;;;40.42;25.75;;;;;;;10.14;100.00;92955.44;2609659;22;20049;-80
2023/05/23 03:12:37;;;;;;;38.20;22.77;;;;;;;10.11;100.00;92956.28;2610868;22;20631;-79
2023/05/23 03:13:49;;;;;;;40.95;23.52;;;;;;;10.08;100.00;92951.75;2610261;22;20491;-79
2023/05/23 03:14:59;;;;;;;36.47;22.67;;;;;;;10.09;100.00;92954.00;2601902;22;20003;-79
2023/05/23 03:16:11;;;;;;;38.17;24.25;;;;;;;10.05;100.00;92960.59;2597752;22;20035;-79
2023/05/23 03:17:20;;;;;;;35.75;22.92;;;;;;;10.02;100.00;92956.09;2588814;22;20007;-79
2023/05/23 03:18:29;;;;;;;38.30;24.08;;;;;;;10.06;100.00;92951.44;2613351;22;19999;-79
2023/05/23 03:19:40;;;;;;;37.22;22.92;;;;;;;10.06;100.00;92956.78;2598415;22;20011;-78
2023/05/23 03:20:52;;;;;;;45.63;24.17;;;;;;;10.19;100.00;92960.28;2609408;22;20078;-77
2023/05/23 03:22:05;;;;;;;33.25;22.00;;;;;;;10.19;100.00;92954.19;2597116;22;20003;-77
2023/05/23 03:23:12;;;;;;;33.50;22.02;;;;;;;10.09;100.00;92956.66;2576373;22;20008;-76
2023/05/23 03:24:22;;;;;;;34.50;23.38;;;;;;;10.04;100.00;92959.84;2590185;22;20771;-79
2023/05/23 03:25:34;;;;;;;39.97;22.95;;;;;;;10.02;100.00;92956.09;2598576;22;20094;-78
2023/05/23 03:26:43;;;;;;;43.85;25.38;;;;;;;10.14;100.00;92963.47;2599221;22;20127;-79
2023/05/23 03:28:02;;;;;;;40.75;23.00;;;;;;;10.12;100.00;92959.69;2610415;22;20007;-79
2023/05/23 03:29:24;;;;;;;41.38;24.30;;;;;;;10.06;100.00;92957.50;2610361;22;20003;-80
2023/05/23 03:30:39;;;;;;;38.85;23.48;;;;;;;10.03;100.00;92953.00;2609035;22;20368;-77
2023/05/23 03:31:51;;;;;;;33.90;22.20;;;;;;;10.02;100.00;92954.16;2598944;22;20015;-81
2023/05/23 03:33:00;;;;;;;38.83;25.48;;;;;;;10.07;100.00;92947.59;2592055;22;20147;-78
2023/05/23 03:34:10;;;;;;;41.83;24.48;;;;;;;10.02;100.00;92954.16;2595840;22;20355;-77
2023/05/23 03:35:20;;;;;;;41.58;25.02;;;;;;;10.07;100.00;92958.25;2606473;22;20003;-79
2023/05/23 03:36:27;;;;;;;42.47;24.58;;;;;;;9.97;100.00;92964.59;2596326;22;20003;-80
2023/05/23 03:37:35;;;;;;;41.90;23.05;;;;;;;9.99;100.00;92957.66;2594463;22;20469;-79
2023/05/23 03:38:44;;;;;;;38.15;22.67;;;;;;;9.94;100.00;92963.50;2607231;22;20007;-77
2023/05/23 03:39:57;;;;;;;39.67;22.98;;;;;;;9.95;100.00;92966.91;2584087;22;20036;-80
2023/05/23 03:41:05;;;;;;;37.72;23.48;;;;;;;9.97;100.00;92965.34;2584008;22;20034;-79
2023/05/23 03:42:12;;;;;;;46.55;24.67;;;;;;;9.91;100.00;92964.31;2595538;22;20007;-79
2023/05/23 03:43:26;;;;;;;39.95;23.40;;;;;;;9.89;100.00;92964.00;2594707;22;20027;-79
2023/05/23 03:44:38;;;;;;;42.08;23.98;;;;;;;9.90;100.00;92964.75;2597064;22;20090;-77
2023/05/23 03:45:49;;;;;;;41.97;23.15;;;;;;;9.91;100.00;92966.25;2583041;22;20604;-78
2023/05/23 03:46:58;;;;;;;39.85;24.35;;;;;;;9.89;100.00;92964.00;2586765;22;20000;-80
2023/05/23 03:48:07;;;;;;;36.70;24.08;;;;;;;9.92;100.00;92962.41;2606560;22;20002;-78
2023/05/23 03:49:15;;;;;;;42.22;24.77;;;;;;;9.91;100.00;92964.31;2593435;22;20212;-79
2023/05/23 03:50:26;;;;;;;36.15;23.17;;;;;;;9.92;100.00;92970.41;2582812;22;20004;-76
2023/05/23 03:51:35;;;;;;;38.47;23.42;;;;;;;9.90;100.00;92964.75;2586049;22;20027;-81
2023/05/23 03:52:46;;;;;;;41.45;24.20;;;;;;;9.96;100.00;92969.16;2607140;22;20242;-79
2023/05/23 03:54:00;;;;;;;44.75;25.65;;;;;;;9.99;100.00;92962.25;2608131;22;19999;-77
2023/05/23 03:55:10;;;;;;;39.45;23.77;;;;;;;10.02;100.00;92961.44;2607399;22;20007;-79
2023/05/23 03:56:15;;;;;;;41.55;24.65;;;;;;;10.03;100.00;92963.69;2606038;22;20007;-77
2023/05/23 03:57:31;;;;;;;41.60;24.65;;;;;;;10.02;100.00;92964.84;2606567;22;20317;-76
2023/05/23 03:58:46;;;;;;;46.70;25.45;;;;;;;10.08;100.00;92967.78;2606690;22;20007;-77
2023/05/23 03:59:54;;;;;;;46.70;25.92;;;;;;;10.12;100.00;92965.03;2583995;22;20000;-78
2023/05/23 04:01:03;;;;;;;41.80;24.98;;;;;;;10.13;100.00;92966.53;2595900;22;20027;-78
2023/05/23 04:02:11;;;;;;;45.90;25.42;;;;;;;10.17;100.00;92967.19;2606792;22;20007;-77
2023/05/23 04:03:19;;;;;;;42.42;24.10;;;;;;;10.17;100.00;92964.53;2608982;22;20003;-77
2023/05/23 04:04:29;;;;;;;44.70;26.75;;;;;;;10.20;100.00;92969.03;2596233;22;20066;-79
2023/05/23 04:05:38;;;;;;;42.00;24.88;;;;;;;10.20;100.00;92967.13;2583648;22;20008;-79
2023/05/23 04:06:50;;;;;;;38.30;23.75;;;;;;;10.21;100.00;92970.53;2597374;22;20421;-77
2023/05/23 04:08:04;;;;;;;43.97;26.02;;;;;;;10.22;100.00;92970.13;2606769;22;20049;-79
2023/05/23 04:09:13;;;;;;;41.63;23.90;;;;;;;10.26;100.00;92970.06;2596271;22;20007;-76
2023/05/23 04:10:21;;;;;;;43.97;26.63;;;;;;;10.25;100.00;92980.00;2595745;22;20098;-77
2023/05/23 04:11:32;;;;;;;41.15;25.75;;;;;;;10.30;100.00;92973.41;2597736;22;20379;-79
2023/05/23 04:12:42;;;;;;;45.55;26.73;;;;;;;10.29;100.00;92974.59;2593934;22;20003;-77
2023/05/23 04:13:50;;;;;;;;;;;;;;;10.38;100.00;92977.44;2573685;22;20013;-80
2023/05/23 04:15:02;;;;;;;43.25;24.33;;;;;;;10.43;100.00;92976.16;2584511;22;19907;-79
2023/05/23 04:16:15;;;;;;;46.67;25.95;;;;;;;10.55;100.00;92973.59;2605921;22;20428;-78
2023/05/23 04:17:29;;;;;;;46.70;25.67;;;;;;;10.62;100.00;92969.97;2593913;22;20027;-79
2023/05/23 04:18:38;;;;;;;44.67;27.23;;;;;;;10.65;100.00;92971.06;2585873;22;20083;-77
2023/05/23 04:19:45;;;;;;;47.90;26.50;;;;;;;10.74;100.00;92973.91;2593863;22;20007;-77
2023/05/23 04:20:54;;;;;;;43.58;25.88;;;;;;;10.76;100.00;92971.56;2583262;22;20000;-81
2023/05/23 04:22:04;;;;;;;58.55;29.17;;;;;;;10.94;100.00;92974.53;2583231;22;20058;-77
2023/05/23 04:23:12;;;;;;;44.95;27.35;;;;;;;11.08;100.00;92976.09;2595565;22;20440;-79
2023/05/23 04:24:21;;;;;;;52.22;27.58;;;;;;;11.11;100.00;92967.25;2606210;22;20007;-78
2023/05/23 04:25:36;;;;;;;48.53;25.80;;;;;;;11.09;100.00;92972.25;2596574;22;20037;-81
2023/05/23 04:26:46;;;;;;;46.63;26.23;;;;;;;11.15;100.00;92970.56;2597563;22;20019;-79
2023/05/23 04:27:53;;;;;;;;;;;;;;;11.21;100.00;92976.91;2596605;22;20000;-81
2023/05/23 04:29:04;;;;;;;47.10;25.90;;;;;;;11.22;100.00;92981.06;2582799;22;19931;-79
2023/05/23 04:30:17;;;;;;;45.08;27.65;;;;;;;11.27;100.00;92980.56;2586173;22;20498;-77
2023/05/23 04:31:28;;;;;;;50.35;28.58;;;;;;;11.32;100.00;92987.31;2606194;22;20401;-78
2023/05/23 04:32:42;;;;;;;49.95;28.70;;;;;;;11.36;100.00;92985.28;2606154;22;20003;-77
2023/05/23 04:33:52;;;;;;;54.05;29.95;;;;;;;11.39;100.00;92989.06;2590426;22;20027;-78
2023/05/23 04:35:03;;;;;;;50.55;29.45;;;;;;;11.39;100.00;92986.38;2591531;22;20417;-77
2023/05/23 04:36:09;;;;;;;57.60;31.05;;;;;;;11.44;100.00;92988.53;2592917;22;20010;-78
2023/05/23 04:37:21;;;;;;;49.22;29.15;;;;;;;11.42;100.00;92988.22;2591215;22;20045;-78
2023/05/23 04:38:28;;;;;;;50.78;29.08;;;;;;;11.44;100.00;92989.28;2589473;22;20011;-78
2023/05/23 04:39:34;;;;;;;50.90;28.65;;;;;;;11.52;100.00;92992.53;2606649;22;20049;-78
2023/05/23 04:40:43;;;;;;;51.38;29.85;;;;;;;11.59;100.00;92987.00;2603508;22;20295;-79
2023/05/23 04:41:53;;;;;;;54.88;31.65;;;;;;;11.62;100.00;92994.16;2602588;22;20015;-79
2023/05/23 04:43:04;;;;;;;56.17;30.00;;;;;;;11.68;100.00;92989.03;2592116;22;20352;-77
2023/05/23 04:44:14;;;;;;;55.72;31.58;;;;;;;11.71;100.00;92998.88;2591212;22;20130;-81
2023/05/23 04:45:25;;;;;;;54.50;31.42;;;;;;;11.77;100.00;92989.91;2603989;22;19995;-80
2023/05/23 04:46:35;;;;;;;57.08;30.02;;;;;;;11.79;100.00;92998.25;2602803;22;20050;-78
2023/05/23 04:47:45;;;;;;;66.68;34.50;;;;;;;11.78;100.00;92988.72;2579112;22;20010;-79
2023/05/23 04:48:57;;;;;;;57.85;33.00;;;;;;;11.84;100.00;92989.72;2568334;22;20094;-77
2023/05/23 04:50:07;;;;;;;66.00;35.58;;;;;;;11.86;100.00;92992.00;2569842;22;20364;-80
2023/05/23 04:51:17;;;;;;;61.67;35.75;;;;;;;11.92;100.00;92981.50;2581252;22;20007;-80
2023/05/23 04:52:28;;;;;;;54.10;31.45;;;;;;;11.96;100.00;92984.81;2580327;22;20012;-79
2023/05/23 04:53:43;;;;;;;59.42;34.08;;;;;;;12.02;100.00;92993.81;2594437;22;20015;-81
2023/05/23 04:54:52;;;;;;;63.85;35.72;;;;;;;12.07;100.00;92990.59;2578351;23;20157;-79
2023/05/23 04:56:01;;;;;;;62.75;33.95;;;;;;;12.13;100.00;92991.59;2574217;22;20365;-76
2023/05/23 04:57:08;;;;;;;61.45;35.13;;;;;;;12.19;100.00;93003.25;2581711;22;20004;-77
2023/05/23 04:58:20;;;;;;;54.55;33.08;;;;;;;12.23;100.00;92992.44;2585708;22;20066;-78
2023/05/23 04:59:31;;;;;;;56.22;32.50;;;;;;;12.25;100.00;92998.13;2594999;22;20000;-81
2023/05/23 05:00:35;;;;;;;61.17;34.40;;;;;;;12.31;100.00;92999.09;2597284;22;20041;-80
2023/05/23 05:01:39;;;;;;;63.10;35.88;;;;;;;12.37;100.00;93004.66;2604836;22;19999;-78
2023/05/23 05:02:40;;;;;;;71.30;36.22;;;;;;;12.39;100.00;93005.75;2604633;22;19999;-79
2023/05/23 05:03:43;;;;;;;58.97;33.25;;;;;;;12.42;100.00;92996.81;2591766;22;20098;-80
2023/05/23 05:04:47;;;;;;;62.88;34.22;;;;;;;12.44;100.00;92999.09;2566605;22;20012;-78
2023/05/23 05:05:48;;;;;;;56.03;34.03;;;;;;;12.45;100.00;93000.59;2567621;22;20443;-80
2023/05/23 05:06:52;;;;;;;54.90;33.35;;;;;;;12.47;100.00;92995.56;2579698;22;20008;-79
2023/05/23 05:07:56;;;;;;;58.80;34.15;;;;;;;12.47;100.00;92990.94;2579007;22;20008;-77
2023/05/23 05:08:59;;;;;;;61.42;34.40;;;;;;;12.52;100.00;92995.75;2592228;22;20287;-78
2023/05/23 05:10:01;;;;;;;61.72;34.50;;;;;;;12.56;100.00;92991.03;2591134;22;20087;-80
2023/05/23 05:11:02;;;;;;;65.13;34.80;;;;;;;12.62;100.00;92991.25;2591408;22;20003;-78
2023/05/23 05:12:03;;;;;;;58.58;34.00;;;;;;;12.69;100.00;92995.66;2592081;22;20456;-81
2023/05/23 05:13:04;;;;;;;58.97;34.72;;;;;;;12.74;100.00;92987.78;2579862;22;20012;-79
2023/05/23 05:14:05;;;;;;;62.17;34.97;;;;;;;12.83;100.00;92981.78;2592074;22;19995;-79
2023/05/23 05:15:07;;;;;;;62.45;33.95;;;;;;;12.87;100.00;92992.38;2606966;22;19999;-78
2023/05/23 05:16:08;;;;;;;58.95;34.53;;;;;;;12.89;100.00;92980.03;2591552;22;20038;-79
2023/05/23 05:17:10;;;;;;;53.78;33.40;;;;;;;12.94;100.00;92984.84;2580808;22;20004;-81
2023/05/23 05:18:17;;;;;;;59.25;32.97;;;;;;;12.96;100.00;92982.47;2591816;22;20072;-81
2023/05/23 05:19:20;;;;;;;58.78;34.67;;;;;;;12.98;100.00;92979.34;2592412;22;20030;-77
2023/05/23 05:20:21;;;;;;;58.92;34.50;;;;;;;13.03;100.00;92986.84;2591495;22;20083;-77
2023/05/23 05:21:22;;;;;;;56.55;33.88;;;;;;;13.06;100.00;92986.75;2590624;22;20011;-78
2023/05/23 05:22:24;;;;;;;58.97;35.67;;;;;;;13.07;100.00;92982.88;2591732;22;20004;-79
2023/05/23 05:23:29;;;;;;;60.97;34.83;;;;;;;13.04;100.00;92994.47;2591746;22;20315;-80
2023/05/23 05:24:32;;;;;;;57.63;33.00;;;;;;;13.02;100.00;92990.72;2594683;22;20068;-78
2023/05/23 05:25:35;;;;;;;54.83;33.20;;;;;;;13.07;100.00;92985.53;2606400;22;20030;-78
2023/05/23 05:26:36;;;;;;;56.33;34.20;;;;;;;13.07;100.00;92993.59;2610800;22;20022;-84
2023/05/23 05:27:38;;;;;;;56.58;33.83;;;;;;;13.11;100.00;92990.81;2609142;22;20003;-86
2023/05/23 05:28:40;;;;;;;60.80;33.97;;;;;;;13.14;100.00;92989.94;2584419;22;20385;-86
2023/05/23 05:29:41;;;;;;;54.15;32.47;;;;;;;13.10;100.00;92987.38;2583209;22;20012;-80
2023/05/23 05:30:42;;;;;;;57.60;34.20;;;;;;;13.12;100.00;92989.59;2581005;22;20012;-79
2023/05/23 05:31:45;;;;;;;54.35;32.83;;;;;;;13.09;100.00;92993.94;2606857;22;20045;-77
2023/05/23 05:32:51;;;;;;;58.65;33.88;;;;;;;13.12;100.00;92989.59;2606132;22;20053;-79